sensor_id;sensor_type;location;lat;lon;timestamp;P1;durP1;ratioP1;P2;durP2;ratioP2
7919;SDS011;18778;47.610;9.776;2023-06-22T00:00:50;10.73;;;6.17;;
7919;SDS011;18778;47.610;9.776;2023-06-22T00:03:19;12.53;;;6.47;;
7919;SDS011;18778;47.610;9.776;2023-06-22T00:05:47;9.30;;;6.40;;
7919;SDS011;18778;47.610;9.776;2023-06-22T00:08:13;11.87;;;6.67;;
7919;SDS011;18778;47.610;9.776;2023-06-22T00:10:39;13.13;;;6.30;;
7919;SDS011;18778;47.610;9.776;2023-06-22T00:13:06;18.30;;;7.33;;
7919;SDS011;18778;47.610;9.776;2023-06-22T00:15:32;12.50;;;6.73;;
7919;SDS011;18778;47.610;9.776;2023-06-22T00:17:58;14.53;;;7.10;;
7919;SDS011;18778;47.610;9.776;2023-06-22T00:20:24;15.37;;;6.97;;
7919;SDS011;18778;47.610;9.776;2023-06-22T00:22:56;9.67;;;6.73;;
7919;SDS011;18778;47.610;9.776;2023-06-22T00:25:22;13.67;;;7.57;;
7919;SDS011;18778;47.610;9.776;2023-06-22T00:27:48;13.43;;;7.23;;
7919;SDS011;18778;47.610;9.776;2023-06-22T00:30:18;10.90;;;7.97;;
7919;SDS011;18778;47.610;9.776;2023-06-22T00:32:44;12.60;;;8.57;;
7919;SDS011;18778;47.610;9.776;2023-06-22T00:35:13;15.30;;;8.13;;
7919;SDS011;18778;47.610;9.776;2023-06-22T00:37:39;14.37;;;7.80;;
7919;SDS011;18778;47.610;9.776;2023-06-22T00:40:08;10.60;;;7.63;;
7919;SDS011;18778;47.610;9.776;2023-06-22T00:42:36;12.97;;;8.03;;
7919;SDS011;18778;47.610;9.776;2023-06-22T00:45:05;10.83;;;7.93;;
7919;SDS011;18778;47.610;9.776;2023-06-22T00:47:32;13.73;;;7.77;;
7919;SDS011;18778;47.610;9.776;2023-06-22T00:49:59;13.20;;;7.70;;
7919;SDS011;18778;47.610;9.776;2023-06-22T00:52:25;12.77;;;8.37;;
7919;SDS011;18778;47.610;9.776;2023-06-22T00:54:54;11.07;;;7.77;;
7919;SDS011;18778;47.610;9.776;2023-06-22T00:57:27;12.30;;;8.00;;
7919;SDS011;18778;47.610;9.776;2023-06-22T00:59:53;13.57;;;8.13;;
7919;SDS011;18778;47.610;9.776;2023-06-22T01:02:19;13.10;;;8.33;;
7919;SDS011;18778;47.610;9.776;2023-06-22T01:04:45;13.77;;;8.20;;
7919;SDS011;18778;47.610;9.776;2023-06-22T01:07:34;15.13;;;8.97;;
7919;SDS011;18778;47.610;9.776;2023-06-22T01:10:16;15.23;;;9.07;;
7919;SDS011;18778;47.610;9.776;2023-06-22T01:15:49;15.67;;;8.80;;
7919;SDS011;18778;47.610;9.776;2023-06-22T01:18:21;10.70;;;8.17;;
7919;SDS011;18778;47.610;9.776;2023-06-22T01:20:50;13.03;;;8.17;;
7919;SDS011;18778;47.610;9.776;2023-06-22T01:26:25;18.00;;;8.67;;
7919;SDS011;18778;47.610;9.776;2023-06-22T01:29:01;15.20;;;8.83;;
7919;SDS011;18778;47.610;9.776;2023-06-22T01:31:29;11.30;;;7.83;;
7919;SDS011;18778;47.610;9.776;2023-06-22T01:33:59;14.70;;;8.23;;
7919;SDS011;18778;47.610;9.776;2023-06-22T01:36:26;13.87;;;7.80;;
7919;SDS011;18778;47.610;9.776;2023-06-22T01:38:53;14.37;;;9.23;;
7919;SDS011;18778;47.610;9.776;2023-06-22T01:41:19;12.10;;;7.70;;
7919;SDS011;18778;47.610;9.776;2023-06-22T01:43:46;12.73;;;8.10;;
7919;SDS011;18778;47.610;9.776;2023-06-22T01:46:13;13.70;;;8.37;;
7919;SDS011;18778;47.610;9.776;2023-06-22T01:48:39;14.33;;;8.07;;
7919;SDS011;18778;47.610;9.776;2023-06-22T01:51:06;10.03;;;7.50;;
7919;SDS011;18778;47.610;9.776;2023-06-22T01:53:32;10.40;;;7.87;;
7919;SDS011;18778;47.610;9.776;2023-06-22T01:55:57;11.17;;;8.53;;
7919;SDS011;18778;47.610;9.776;2023-06-22T01:58:25;15.27;;;8.27;;
7919;SDS011;18778;47.610;9.776;2023-06-22T02:01:13;12.97;;;9.03;;
7919;SDS011;18778;47.610;9.776;2023-06-22T02:03:44;13.03;;;9.37;;
7919;SDS011;18778;47.610;9.776;2023-06-22T02:06:21;14.90;;;10.03;;
7919;SDS011;18778;47.610;9.776;2023-06-22T02:08:53;11.57;;;8.60;;
7919;SDS011;18778;47.610;9.776;2023-06-22T02:11:24;16.40;;;10.00;;
7919;SDS011;18778;47.610;9.776;2023-06-22T02:13:52;13.27;;;10.30;;
7919;SDS011;18778;47.610;9.776;2023-06-22T02:16:18;13.20;;;9.17;;
7919;SDS011;18778;47.610;9.776;2023-06-22T02:18:48;16.00;;;9.90;;
7919;SDS011;18778;47.610;9.776;2023-06-22T02:21:18;14.57;;;9.87;;
7919;SDS011;18778;47.610;9.776;2023-06-22T02:23:44;16.73;;;10.27;;
7919;SDS011;18778;47.610;9.776;2023-06-22T02:26:09;13.73;;;9.90;;
7919;SDS011;18778;47.610;9.776;2023-06-22T02:28:35;15.13;;;10.07;;
7919;SDS011;18778;47.610;9.776;2023-06-22T02:31:01;15.13;;;9.47;;
7919;SDS011;18778;47.610;9.776;2023-06-22T02:33:27;15.63;;;10.37;;
7919;SDS011;18778;47.610;9.776;2023-06-22T02:35:53;14.63;;;10.47;;
7919;SDS011;18778;47.610;9.776;2023-06-22T02:38:18;15.30;;;9.93;;
7919;SDS011;18778;47.610;9.776;2023-06-22T02:40:44;19.67;;;10.37;;
7919;SDS011;18778;47.610;9.776;2023-06-22T02:43:10;15.17;;;9.90;;
7919;SDS011;18778;47.610;9.776;2023-06-22T02:45:36;16.00;;;10.07;;
7919;SDS011;18778;47.610;9.776;2023-06-22T02:48:02;14.17;;;9.00;;
7919;SDS011;18778;47.610;9.776;2023-06-22T02:50:28;15.73;;;10.33;;
7919;SDS011;18778;47.610;9.776;2023-06-22T02:52:54;14.30;;;9.20;;
7919;SDS011;18778;47.610;9.776;2023-06-22T02:55:19;16.97;;;9.47;;
7919;SDS011;18778;47.610;9.776;2023-06-22T02:57:45;14.47;;;9.07;;
7919;SDS011;18778;47.610;9.776;2023-06-22T03:00:13;13.60;;;8.67;;
7919;SDS011;18778;47.610;9.776;2023-06-22T03:02:43;12.53;;;9.60;;
7919;SDS011;18778;47.610;9.776;2023-06-22T03:05:09;16.50;;;9.47;;
7919;SDS011;18778;47.610;9.776;2023-06-22T03:07:38;16.53;;;9.87;;
7919;SDS011;18778;47.610;9.776;2023-06-22T03:10:08;12.93;;;8.90;;
7919;SDS011;18778;47.610;9.776;2023-06-22T03:12:37;13.80;;;8.90;;
7919;SDS011;18778;47.610;9.776;2023-06-22T03:15:05;12.37;;;9.23;;
7919;SDS011;18778;47.610;9.776;2023-06-22T03:17:35;15.90;;;9.73;;
7919;SDS011;18778;47.610;9.776;2023-06-22T03:20:03;12.47;;;9.80;;
7919;SDS011;18778;47.610;9.776;2023-06-22T03:22:39;13.33;;;9.53;;
7919;SDS011;18778;47.610;9.776;2023-06-22T03:25:06;17.30;;;10.93;;
7919;SDS011;18778;47.610;9.776;2023-06-22T03:27:44;13.40;;;9.57;;
7919;SDS011;18778;47.610;9.776;2023-06-22T03:30:10;14.57;;;9.50;;
7919;SDS011;18778;47.610;9.776;2023-06-22T03:32:36;15.90;;;10.10;;
7919;SDS011;18778;47.610;9.776;2023-06-22T03:35:02;15.43;;;10.53;;
7919;SDS011;18778;47.610;9.776;2023-06-22T03:37:28;15.10;;;10.47;;
7919;SDS011;18778;47.610;9.776;2023-06-22T03:39:54;17.87;;;10.73;;
7919;SDS011;18778;47.610;9.776;2023-06-22T03:42:20;15.03;;;9.57;;
7919;SDS011;18778;47.610;9.776;2023-06-22T03:44:46;14.80;;;9.70;;
7919;SDS011;18778;47.610;9.776;2023-06-22T03:47:12;18.37;;;9.57;;
7919;SDS011;18778;47.610;9.776;2023-06-22T03:49:37;21.07;;;10.40;;
7919;SDS011;18778;47.610;9.776;2023-06-22T03:52:03;12.27;;;9.13;;
7919;SDS011;18778;47.610;9.776;2023-06-22T03:54:29;15.70;;;9.80;;
7919;SDS011;18778;47.610;9.776;2023-06-22T03:56:58;16.90;;;8.87;;
7919;SDS011;18778;47.610;9.776;2023-06-22T03:59:24;14.40;;;9.20;;
7919;SDS011;18778;47.610;9.776;2023-06-22T04:01:50;14.37;;;9.57;;
7919;SDS011;18778;47.610;9.776;2023-06-22T04:04:16;19.87;;;8.87;;
7919;SDS011;18778;47.610;9.776;2023-06-22T04:06:42;15.50;;;9.53;;
7919;SDS011;18778;47.610;9.776;2023-06-22T04:09:08;14.63;;;9.20;;
7919;SDS011;18778;47.610;9.776;2023-06-22T04:11:34;14.70;;;9.50;;
7919;SDS011;18778;47.610;9.776;2023-06-22T04:13:59;13.10;;;8.23;;
7919;SDS011;18778;47.610;9.776;2023-06-22T04:16:25;15.23;;;8.57;;
7919;SDS011;18778;47.610;9.776;2023-06-22T04:18:51;13.30;;;9.13;;
7919;SDS011;18778;47.610;9.776;2023-06-22T04:21:16;12.57;;;9.23;;
7919;SDS011;18778;47.610;9.776;2023-06-22T04:23:42;13.73;;;9.03;;
7919;SDS011;18778;47.610;9.776;2023-06-22T04:26:08;14.43;;;9.53;;
7919;SDS011;18778;47.610;9.776;2023-06-22T04:28:34;20.60;;;10.40;;
7919;SDS011;18778;47.610;9.776;2023-06-22T04:31:01;17.73;;;10.47;;
7919;SDS011;18778;47.610;9.776;2023-06-22T04:33:27;15.47;;;9.50;;
7919;SDS011;18778;47.610;9.776;2023-06-22T04:35:54;16.37;;;11.20;;
7919;SDS011;18778;47.610;9.776;2023-06-22T04:38:22;19.67;;;10.90;;
7919;SDS011;18778;47.610;9.776;2023-06-22T04:40:48;13.47;;;10.87;;
7919;SDS011;18778;47.610;9.776;2023-06-22T04:43:15;13.80;;;9.90;;
7919;SDS011;18778;47.610;9.776;2023-06-22T04:45:40;12.73;;;9.97;;
7919;SDS011;18778;47.610;9.776;2023-06-22T04:48:06;16.97;;;10.33;;
7919;SDS011;18778;47.610;9.776;2023-06-22T04:50:36;18.87;;;10.70;;
7919;SDS011;18778;47.610;9.776;2023-06-22T04:53:03;19.47;;;10.33;;
7919;SDS011;18778;47.610;9.776;2023-06-22T04:55:31;20.23;;;10.53;;
7919;SDS011;18778;47.610;9.776;2023-06-22T04:57:57;22.40;;;10.70;;
7919;SDS011;18778;47.610;9.776;2023-06-22T05:00:29;15.70;;;9.80;;
7919;SDS011;18778;47.610;9.776;2023-06-22T05:02:55;22.73;;;10.10;;
7919;SDS011;18778;47.610;9.776;2023-06-22T05:05:22;16.20;;;9.43;;
7919;SDS011;18778;47.610;9.776;2023-06-22T05:07:49;18.97;;;9.67;;
7919;SDS011;18778;47.610;9.776;2023-06-22T05:10:18;16.97;;;9.70;;
7919;SDS011;18778;47.610;9.776;2023-06-22T05:12:44;14.30;;;9.37;;
7919;SDS011;18778;47.610;9.776;2023-06-22T05:15:10;12.77;;;9.23;;
7919;SDS011;18778;47.610;9.776;2023-06-22T05:17:36;15.87;;;9.97;;
7919;SDS011;18778;47.610;9.776;2023-06-22T05:20:08;13.67;;;9.70;;
7919;SDS011;18778;47.610;9.776;2023-06-22T05:22:35;13.90;;;9.20;;
7919;SDS011;18778;47.610;9.776;2023-06-22T05:25:01;17.83;;;10.20;;
7919;SDS011;18778;47.610;9.776;2023-06-22T05:27:26;13.47;;;9.83;;
7919;SDS011;18778;47.610;9.776;2023-06-22T05:29:52;17.17;;;9.60;;
7919;SDS011;18778;47.610;9.776;2023-06-22T05:32:18;16.10;;;9.43;;
7919;SDS011;18778;47.610;9.776;2023-06-22T05:34:43;13.43;;;9.20;;
7919;SDS011;18778;47.610;9.776;2023-06-22T05:37:09;14.00;;;9.80;;
7919;SDS011;18778;47.610;9.776;2023-06-22T05:39:34;18.33;;;10.20;;
7919;SDS011;18778;47.610;9.776;2023-06-22T05:42:03;17.20;;;10.60;;
7919;SDS011;18778;47.610;9.776;2023-06-22T05:44:30;19.27;;;10.40;;
7919;SDS011;18778;47.610;9.776;2023-06-22T05:46:55;14.07;;;9.93;;
7919;SDS011;18778;47.610;9.776;2023-06-22T05:49:21;15.03;;;9.53;;
7919;SDS011;18778;47.610;9.776;2023-06-22T05:51:47;14.33;;;9.50;;
7919;SDS011;18778;47.610;9.776;2023-06-22T05:54:13;16.87;;;9.93;;
7919;SDS011;18778;47.610;9.776;2023-06-22T05:56:40;14.83;;;9.67;;
7919;SDS011;18778;47.610;9.776;2023-06-22T05:59:06;15.40;;;10.10;;
7919;SDS011;18778;47.610;9.776;2023-06-22T06:01:32;15.83;;;10.60;;
7919;SDS011;18778;47.610;9.776;2023-06-22T06:04:01;14.63;;;10.40;;
7919;SDS011;18778;47.610;9.776;2023-06-22T06:06:30;16.00;;;10.03;;
7919;SDS011;18778;47.610;9.776;2023-06-22T06:08:56;15.47;;;9.47;;
7919;SDS011;18778;47.610;9.776;2023-06-22T06:11:22;17.77;;;10.27;;
7919;SDS011;18778;47.610;9.776;2023-06-22T06:13:47;14.67;;;10.70;;
7919;SDS011;18778;47.610;9.776;2023-06-22T06:16:13;12.53;;;9.77;;
7919;SDS011;18778;47.610;9.776;2023-06-22T06:18:38;14.97;;;10.07;;
7919;SDS011;18778;47.610;9.776;2023-06-22T06:21:04;16.77;;;10.03;;
7919;SDS011;18778;47.610;9.776;2023-06-22T06:23:30;16.50;;;10.47;;
7919;SDS011;18778;47.610;9.776;2023-06-22T06:25:56;15.83;;;10.50;;
7919;SDS011;18778;47.610;9.776;2023-06-22T06:28:21;18.50;;;10.13;;
7919;SDS011;18778;47.610;9.776;2023-06-22T06:30:47;12.47;;;9.60;;
7919;SDS011;18778;47.610;9.776;2023-06-22T06:33:13;15.63;;;10.50;;
7919;SDS011;18778;47.610;9.776;2023-06-22T06:35:38;16.17;;;10.43;;
7919;SDS011;18778;47.610;9.776;2023-06-22T06:38:04;16.80;;;9.53;;
7919;SDS011;18778;47.610;9.776;2023-06-22T06:40:30;13.43;;;9.83;;
7919;SDS011;18778;47.610;9.776;2023-06-22T06:42:56;13.40;;;9.40;;
7919;SDS011;18778;47.610;9.776;2023-06-22T06:45:22;12.73;;;9.20;;
7919;SDS011;18778;47.610;9.776;2023-06-22T06:47:49;13.03;;;9.20;;
7919;SDS011;18778;47.610;9.776;2023-06-22T06:50:16;22.07;;;9.80;;
7919;SDS011;18778;47.610;9.776;2023-06-22T06:52:42;18.43;;;10.10;;
7919;SDS011;18778;47.610;9.776;2023-06-22T06:55:08;15.47;;;9.10;;
7919;SDS011;18778;47.610;9.776;2023-06-22T06:57:36;14.23;;;9.50;;
7919;SDS011;18778;47.610;9.776;2023-06-22T07:00:03;13.57;;;8.83;;
7919;SDS011;18778;47.610;9.776;2023-06-22T07:02:37;15.30;;;9.90;;
7919;SDS011;18778;47.610;9.776;2023-06-22T07:05:04;13.00;;;9.33;;
7919;SDS011;18778;47.610;9.776;2023-06-22T07:07:30;13.47;;;9.23;;
7919;SDS011;18778;47.610;9.776;2023-06-22T07:09:56;15.53;;;9.27;;
7919;SDS011;18778;47.610;9.776;2023-06-22T07:12:22;14.63;;;9.70;;
7919;SDS011;18778;47.610;9.776;2023-06-22T07:14:48;14.73;;;9.10;;
7919;SDS011;18778;47.610;9.776;2023-06-22T07:17:15;16.63;;;9.33;;
7919;SDS011;18778;47.610;9.776;2023-06-22T07:19:41;16.13;;;10.17;;
7919;SDS011;18778;47.610;9.776;2023-06-22T07:22:07;13.30;;;8.67;;
7919;SDS011;18778;47.610;9.776;2023-06-22T07:24:32;14.30;;;9.27;;
7919;SDS011;18778;47.610;9.776;2023-06-22T07:26:58;19.73;;;9.40;;
7919;SDS011;18778;47.610;9.776;2023-06-22T07:29:24;14.17;;;8.40;;
7919;SDS011;18778;47.610;9.776;2023-06-22T07:31:51;13.47;;;9.37;;
7919;SDS011;18778;47.610;9.776;2023-06-22T07:34:17;16.93;;;8.57;;
7919;SDS011;18778;47.610;9.776;2023-06-22T07:36:43;12.37;;;9.17;;
7919;SDS011;18778;47.610;9.776;2023-06-22T07:39:09;16.73;;;8.70;;
7919;SDS011;18778;47.610;9.776;2023-06-22T07:41:34;16.27;;;9.13;;
7919;SDS011;18778;47.610;9.776;2023-06-22T07:44:01;16.47;;;8.80;;
7919;SDS011;18778;47.610;9.776;2023-06-22T07:46:28;14.57;;;9.20;;
7919;SDS011;18778;47.610;9.776;2023-06-22T07:48:55;13.70;;;8.40;;
7919;SDS011;18778;47.610;9.776;2023-06-22T07:51:21;14.87;;;7.50;;
7919;SDS011;18778;47.610;9.776;2023-06-22T07:53:47;12.33;;;7.57;;
7919;SDS011;18778;47.610;9.776;2023-06-22T07:56:12;16.83;;;8.13;;
7919;SDS011;18778;47.610;9.776;2023-06-22T07:58:43;15.90;;;9.43;;
7919;SDS011;18778;47.610;9.776;2023-06-22T08:01:10;22.37;;;9.13;;
7919;SDS011;18778;47.610;9.776;2023-06-22T08:03:36;13.97;;;8.57;;
7919;SDS011;18778;47.610;9.776;2023-06-22T08:06:02;11.97;;;8.10;;
7919;SDS011;18778;47.610;9.776;2023-06-22T08:08:28;15.07;;;8.17;;
7919;SDS011;18778;47.610;9.776;2023-06-22T08:10:54;11.27;;;7.73;;
7919;SDS011;18778;47.610;9.776;2023-06-22T08:13:20;14.93;;;8.03;;
7919;SDS011;18778;47.610;9.776;2023-06-22T08:15:46;10.53;;;7.57;;
7919;SDS011;18778;47.610;9.776;2023-06-22T08:18:12;17.13;;;8.53;;
7919;SDS011;18778;47.610;9.776;2023-06-22T08:20:37;14.73;;;8.63;;
7919;SDS011;18778;47.610;9.776;2023-06-22T08:23:03;16.57;;;7.53;;
7919;SDS011;18778;47.610;9.776;2023-06-22T08:25:32;14.77;;;8.13;;
7919;SDS011;18778;47.610;9.776;2023-06-22T08:27:59;11.10;;;8.10;;
7919;SDS011;18778;47.610;9.776;2023-06-22T08:30:25;16.07;;;8.40;;
7919;SDS011;18778;47.610;9.776;2023-06-22T08:32:51;12.97;;;8.13;;
7919;SDS011;18778;47.610;9.776;2023-06-22T08:35:16;10.20;;;6.93;;
7919;SDS011;18778;47.610;9.776;2023-06-22T08:37:42;15.33;;;7.83;;
7919;SDS011;18778;47.610;9.776;2023-06-22T08:40:08;12.73;;;8.33;;
7919;SDS011;18778;47.610;9.776;2023-06-22T08:42:35;17.00;;;7.73;;
7919;SDS011;18778;47.610;9.776;2023-06-22T08:45:01;12.80;;;7.63;;
7919;SDS011;18778;47.610;9.776;2023-06-22T08:47:27;16.43;;;7.60;;
7919;SDS011;18778;47.610;9.776;2023-06-22T08:49:53;17.60;;;8.10;;
7919;SDS011;18778;47.610;9.776;2023-06-22T08:52:19;16.30;;;8.70;;
7919;SDS011;18778;47.610;9.776;2023-06-22T08:54:45;15.70;;;9.20;;
7919;SDS011;18778;47.610;9.776;2023-06-22T08:57:12;16.73;;;9.40;;
7919;SDS011;18778;47.610;9.776;2023-06-22T08:59:38;19.67;;;9.03;;
7919;SDS011;18778;47.610;9.776;2023-06-22T09:02:04;14.93;;;9.03;;
7919;SDS011;18778;47.610;9.776;2023-06-22T09:04:30;17.60;;;9.43;;
7919;SDS011;18778;47.610;9.776;2023-06-22T09:06:59;12.37;;;9.53;;
7919;SDS011;18778;47.610;9.776;2023-06-22T09:09:25;19.13;;;10.10;;
7919;SDS011;18778;47.610;9.776;2023-06-22T09:11:51;16.50;;;9.67;;
7919;SDS011;18778;47.610;9.776;2023-06-22T09:14:17;19.17;;;10.30;;
7919;SDS011;18778;47.610;9.776;2023-06-22T09:16:43;16.07;;;10.10;;
7919;SDS011;18778;47.610;9.776;2023-06-22T09:19:10;11.90;;;9.00;;
7919;SDS011;18778;47.610;9.776;2023-06-22T09:21:36;16.10;;;9.60;;
7919;SDS011;18778;47.610;9.776;2023-06-22T09:24:02;13.00;;;9.40;;
7919;SDS011;18778;47.610;9.776;2023-06-22T09:26:28;15.23;;;10.93;;
7919;SDS011;18778;47.610;9.776;2023-06-22T09:28:54;16.63;;;10.03;;
7919;SDS011;18778;47.610;9.776;2023-06-22T09:31:19;15.07;;;10.20;;
7919;SDS011;18778;47.610;9.776;2023-06-22T09:33:51;17.47;;;10.40;;
7919;SDS011;18778;47.610;9.776;2023-06-22T09:36:22;18.47;;;9.87;;
7919;SDS011;18778;47.610;9.776;2023-06-22T09:38:48;19.20;;;10.03;;
7919;SDS011;18778;47.610;9.776;2023-06-22T09:41:20;13.13;;;9.10;;
7919;SDS011;18778;47.610;9.776;2023-06-22T09:43:45;15.10;;;9.37;;
7919;SDS011;18778;47.610;9.776;2023-06-22T09:46:11;14.00;;;8.80;;
7919;SDS011;18778;47.610;9.776;2023-06-22T09:48:36;13.07;;;9.83;;
7919;SDS011;18778;47.610;9.776;2023-06-22T09:51:02;16.27;;;9.97;;
7919;SDS011;18778;47.610;9.776;2023-06-22T09:53:28;18.03;;;9.70;;
7919;SDS011;18778;47.610;9.776;2023-06-22T09:55:54;14.97;;;9.50;;
7919;SDS011;18778;47.610;9.776;2023-06-22T09:58:19;11.33;;;8.83;;
7919;SDS011;18778;47.610;9.776;2023-06-22T10:00:45;12.67;;;8.83;;
7919;SDS011;18778;47.610;9.776;2023-06-22T10:03:11;14.73;;;9.00;;
7919;SDS011;18778;47.610;9.776;2023-06-22T10:05:36;13.88;;;8.52;;
7919;SDS011;18778;47.610;9.776;2023-06-22T10:08:02;14.20;;;8.40;;
7919;SDS011;18778;47.610;9.776;2023-06-22T10:10:28;15.32;;;8.98;;
7919;SDS011;18778;47.610;9.776;2023-06-22T10:12:57;15.25;;;8.23;;
7919;SDS011;18778;47.610;9.776;2023-06-22T10:15:27;15.88;;;9.55;;
7919;SDS011;18778;47.610;9.776;2023-06-22T10:17:53;13.30;;;8.38;;
7919;SDS011;18778;47.610;9.776;2023-06-22T10:20:18;16.55;;;9.32;;
7919;SDS011;18778;47.610;9.776;2023-06-22T10:22:45;18.50;;;9.32;;
7919;SDS011;18778;47.610;9.776;2023-06-22T10:25:12;19.27;;;9.23;;
7919;SDS011;18778;47.610;9.776;2023-06-22T10:27:38;15.25;;;9.25;;
7919;SDS011;18778;47.610;9.776;2023-06-22T10:30:07;17.05;;;9.68;;
7919;SDS011;18778;47.610;9.776;2023-06-22T10:32:34;12.50;;;8.98;;
7919;SDS011;18778;47.610;9.776;2023-06-22T10:35:01;15.50;;;8.82;;
7919;SDS011;18778;47.610;9.776;2023-06-22T10:37:27;18.05;;;9.05;;
7919;SDS011;18778;47.610;9.776;2023-06-22T10:39:52;16.05;;;7.90;;
7919;SDS011;18778;47.610;9.776;2023-06-22T10:42:18;13.23;;;8.20;;
7919;SDS011;18778;47.610;9.776;2023-06-22T10:44:43;13.18;;;7.38;;
7919;SDS011;18778;47.610;9.776;2023-06-22T10:47:10;13.85;;;7.90;;
7919;SDS011;18778;47.610;9.776;2023-06-22T10:49:37;12.80;;;7.40;;
7919;SDS011;18778;47.610;9.776;2023-06-22T10:52:06;12.95;;;7.88;;
7919;SDS011;18778;47.610;9.776;2023-06-22T10:54:33;13.05;;;8.45;;
7919;SDS011;18778;47.610;9.776;2023-06-22T10:56:59;16.20;;;8.52;;
7919;SDS011;18778;47.610;9.776;2023-06-22T10:59:25;14.25;;;8.40;;
7919;SDS011;18778;47.610;9.776;2023-06-22T11:01:52;14.02;;;8.32;;
7919;SDS011;18778;47.610;9.776;2023-06-22T11:04:18;14.50;;;7.90;;
7919;SDS011;18778;47.610;9.776;2023-06-22T11:06:47;12.45;;;7.60;;
7919;SDS011;18778;47.610;9.776;2023-06-22T11:09:13;15.02;;;8.13;;
7919;SDS011;18778;47.610;9.776;2023-06-22T11:11:43;13.27;;;7.18;;
7919;SDS011;18778;47.610;9.776;2023-06-22T11:14:09;14.00;;;7.80;;
7919;SDS011;18778;47.610;9.776;2023-06-22T11:16:35;15.40;;;7.03;;
7919;SDS011;18778;47.610;9.776;2023-06-22T11:19:00;14.93;;;7.57;;
7919;SDS011;18778;47.610;9.776;2023-06-22T11:21:28;17.30;;;7.43;;
7919;SDS011;18778;47.610;9.776;2023-06-22T11:23:54;16.48;;;7.00;;
7919;SDS011;18778;47.610;9.776;2023-06-22T11:26:19;15.50;;;7.38;;
7919;SDS011;18778;47.610;9.776;2023-06-22T11:28:46;14.10;;;7.35;;
7919;SDS011;18778;47.610;9.776;2023-06-22T11:31:12;11.43;;;6.00;;
7919;SDS011;18778;47.610;9.776;2023-06-22T11:33:37;10.85;;;6.50;;
7919;SDS011;18778;47.610;9.776;2023-06-22T11:36:03;16.13;;;7.45;;
7919;SDS011;18778;47.610;9.776;2023-06-22T11:38:29;12.02;;;6.72;;
7919;SDS011;18778;47.610;9.776;2023-06-22T11:40:55;13.88;;;7.20;;
7919;SDS011;18778;47.610;9.776;2023-06-22T11:43:23;11.45;;;5.78;;
7919;SDS011;18778;47.610;9.776;2023-06-22T11:45:48;12.50;;;6.80;;
7919;SDS011;18778;47.610;9.776;2023-06-22T11:48:15;11.63;;;5.93;;
7919;SDS011;18778;47.610;9.776;2023-06-22T11:50:41;11.35;;;6.55;;
7919;SDS011;18778;47.610;9.776;2023-06-22T11:53:07;12.77;;;6.18;;
7919;SDS011;18778;47.610;9.776;2023-06-22T11:55:33;11.27;;;6.00;;
7919;SDS011;18778;47.610;9.776;2023-06-22T11:57:59;9.32;;;5.68;;
7919;SDS011;18778;47.610;9.776;2023-06-22T12:00:28;12.82;;;5.90;;
7919;SDS011;18778;47.610;9.776;2023-06-22T12:02:54;16.70;;;6.85;;
7919;SDS011;18778;47.610;9.776;2023-06-22T12:05:21;11.48;;;5.90;;
7919;SDS011;18778;47.610;9.776;2023-06-22T12:07:47;13.98;;;7.00;;
7919;SDS011;18778;47.610;9.776;2023-06-22T12:10:13;15.38;;;6.38;;
7919;SDS011;18778;47.610;9.776;2023-06-22T12:12:40;12.13;;;5.50;;
7919;SDS011;18778;47.610;9.776;2023-06-22T12:15:06;9.60;;;6.00;;
7919;SDS011;18778;47.610;9.776;2023-06-22T12:17:32;17.58;;;6.57;;
7919;SDS011;18778;47.610;9.776;2023-06-22T12:19:58;10.60;;;6.18;;
7919;SDS011;18778;47.610;9.776;2023-06-22T12:22:25;12.77;;;5.82;;
7919;SDS011;18778;47.610;9.776;2023-06-22T12:24:50;11.80;;;6.03;;
7919;SDS011;18778;47.610;9.776;2023-06-22T12:27:16;15.35;;;6.28;;
7919;SDS011;18778;47.610;9.776;2023-06-22T12:29:43;8.75;;;6.20;;
7919;SDS011;18778;47.610;9.776;2023-06-22T12:32:12;11.32;;;5.80;;
7919;SDS011;18778;47.610;9.776;2023-06-22T12:34:38;12.48;;;6.28;;
7919;SDS011;18778;47.610;9.776;2023-06-22T12:37:04;12.82;;;6.10;;
7919;SDS011;18778;47.610;9.776;2023-06-22T12:39:31;17.60;;;6.35;;
7919;SDS011;18778;47.610;9.776;2023-06-22T12:41:57;13.98;;;6.15;;
7919;SDS011;18778;47.610;9.776;2023-06-22T12:44:22;10.23;;;5.65;;
7919;SDS011;18778;47.610;9.776;2023-06-22T12:46:48;16.20;;;6.28;;
7919;SDS011;18778;47.610;9.776;2023-06-22T12:49:13;16.33;;;6.00;;
7919;SDS011;18778;47.610;9.776;2023-06-22T12:51:40;12.45;;;6.15;;
7919;SDS011;18778;47.610;9.776;2023-06-22T12:54:07;15.05;;;6.28;;
7919;SDS011;18778;47.610;9.776;2023-06-22T12:56:33;12.63;;;6.13;;
7919;SDS011;18778;47.610;9.776;2023-06-22T12:58:58;15.50;;;6.32;;
7919;SDS011;18778;47.610;9.776;2023-06-22T13:01:26;14.13;;;6.47;;
7919;SDS011;18778;47.610;9.776;2023-06-22T13:03:52;15.57;;;6.20;;
7919;SDS011;18778;47.610;9.776;2023-06-22T13:06:18;13.77;;;6.35;;
7919;SDS011;18778;47.610;9.776;2023-06-22T13:08:44;15.60;;;5.88;;
7919;SDS011;18778;47.610;9.776;2023-06-22T13:11:10;22.08;;;6.93;;
7919;SDS011;18778;47.610;9.776;2023-06-22T13:13:38;13.75;;;5.75;;
7919;SDS011;18778;47.610;9.776;2023-06-22T13:16:05;13.75;;;5.75;;
7919;SDS011;18778;47.610;9.776;2023-06-22T13:18:30;14.45;;;5.47;;
7919;SDS011;18778;47.610;9.776;2023-06-22T13:20:56;16.42;;;6.07;;
7919;SDS011;18778;47.610;9.776;2023-06-22T13:23:23;16.15;;;5.72;;
7919;SDS011;18778;47.610;9.776;2023-06-22T13:25:48;15.10;;;6.28;;
7919;SDS011;18778;47.610;9.776;2023-06-22T13:28:14;12.13;;;5.57;;
7919;SDS011;18778;47.610;9.776;2023-06-22T13:30:41;13.57;;;6.13;;
7919;SDS011;18778;47.610;9.776;2023-06-22T13:33:07;16.65;;;5.50;;
7919;SDS011;18778;47.610;9.776;2023-06-22T13:35:33;10.57;;;5.72;;
7919;SDS011;18778;47.610;9.776;2023-06-22T13:38:00;17.25;;;6.15;;
7919;SDS011;18778;47.610;9.776;2023-06-22T13:40:26;11.68;;;5.90;;
7919;SDS011;18778;47.610;9.776;2023-06-22T13:42:52;20.70;;;6.00;;
7919;SDS011;18778;47.610;9.776;2023-06-22T13:45:18;10.65;;;5.78;;
7919;SDS011;18778;47.610;9.776;2023-06-22T13:47:44;13.98;;;5.90;;
7919;SDS011;18778;47.610;9.776;2023-06-22T13:50:10;10.63;;;6.28;;
7919;SDS011;18778;47.610;9.776;2023-06-22T13:52:38;13.75;;;5.65;;
7919;SDS011;18778;47.610;9.776;2023-06-22T13:55:04;15.95;;;6.68;;
7919;SDS011;18778;47.610;9.776;2023-06-22T13:57:32;16.67;;;5.72;;
7919;SDS011;18778;47.610;9.776;2023-06-22T13:59:58;13.85;;;5.85;;
7919;SDS011;18778;47.610;9.776;2023-06-22T14:02:25;15.05;;;6.40;;
7919;SDS011;18778;47.610;9.776;2023-06-22T14:04:52;16.13;;;5.88;;
7919;SDS011;18778;47.610;9.776;2023-06-22T14:07:20;14.57;;;5.97;;
7919;SDS011;18778;47.610;9.776;2023-06-22T14:09:46;16.05;;;5.95;;
7919;SDS011;18778;47.610;9.776;2023-06-22T14:12:14;17.08;;;5.47;;
7919;SDS011;18778;47.610;9.776;2023-06-22T14:14:42;14.82;;;5.40;;
7919;SDS011;18778;47.610;9.776;2023-06-22T14:17:11;16.35;;;5.65;;
7919;SDS011;18778;47.610;9.776;2023-06-22T14:19:40;12.18;;;5.45;;
7919;SDS011;18778;47.610;9.776;2023-06-22T14:22:08;12.82;;;5.40;;
7919;SDS011;18778;47.610;9.776;2023-06-22T14:24:34;14.90;;;5.95;;
7919;SDS011;18778;47.610;9.776;2023-06-22T14:27:00;12.98;;;5.68;;
7919;SDS011;18778;47.610;9.776;2023-06-22T14:29:28;14.93;;;5.53;;
7919;SDS011;18778;47.610;9.776;2023-06-22T14:31:56;14.95;;;5.65;;
7919;SDS011;18778;47.610;9.776;2023-06-22T14:34:22;15.82;;;5.53;;
7919;SDS011;18778;47.610;9.776;2023-06-22T14:36:52;12.60;;;6.18;;
7919;SDS011;18778;47.610;9.776;2023-06-22T14:39:18;11.05;;;5.63;;
7919;SDS011;18778;47.610;9.776;2023-06-22T14:41:46;14.63;;;6.50;;
7919;SDS011;18778;47.610;9.776;2023-06-22T14:44:12;12.63;;;6.93;;
7919;SDS011;18778;47.610;9.776;2023-06-22T14:46:38;10.30;;;6.78;;
7919;SDS011;18778;47.610;9.776;2023-06-22T14:49:04;13.80;;;7.15;;